sensor_id;sensor_type;location;lat;lon;timestamp;pressure;altitude;pressure_sealevel;temperature;humidity
61740;BME280;47645;45.288;12.038;2023-07-31T00:01:40;1012.0437154660286;;;24.708984375;91.07579547509593
61740;BME280;47645;45.288;12.038;2023-07-31T00:11:41;1012.0077075817071;;;24.8875;88.96534214319247
61740;BME280;47645;45.288;12.038;2023-07-31T00:21:44;1012.0110689718738;;;24.6681640625;93.55468779307341
61740;BME280;47645;45.288;12.038;2023-07-31T00:31:44;1011.9986926578583;;;24.790625;89.22872890428964
61740;BME280;47645;45.288;12.038;2023-07-31T00:41:46;1011.9299320948447;;;24.0412109375;100
61740;BME280;47645;45.288;12.038;2023-07-31T00:51:47;1011.7996207510639;;;23.8525390625;100
61740;BME280;47645;45.288;12.038;2023-07-31T01:01:49;1011.8364911094869;;;23.9341796875;100
61740;BME280;47645;45.288;12.038;2023-07-31T01:11:53;1011.8553171153085;;;23.9240234375;100
61740;BME280;47645;45.288;12.038;2023-07-31T01:22:05;1011.8132957350457;;;23.485546875;100
61740;BME280;47645;45.288;12.038;2023-07-31T01:31:55;1011.7876771420042;;;23.4703125;100
61740;BME280;47645;45.288;12.038;2023-07-31T01:41:54;1011.8213059512615;;;23.1900390625;100
61740;BME280;47645;45.288;12.038;2023-07-31T01:51:56;1011.9469041696705;;;23.2001953125;100
61740;BME280;47645;45.288;12.038;2023-07-31T02:01:57;1011.9602087901163;;;23.3224609375;100
61740;BME280;47645;45.288;12.038;2023-07-31T02:11:59;1011.9230186272239;;;24.010546875;96.04020210856892
61740;BME280;47645;45.288;12.038;2023-07-31T02:22:00;1011.9023863991376;;;24.10234375;92.3476810320384
61740;BME280;47645;45.288;12.038;2023-07-31T02:32:02;1011.9607238015993;;;24.0564453125;91.52836477004894
61740;BME280;47645;45.288;12.038;2023-07-31T02:42:03;1011.950419008973;;;24.0412109375;91.07506998315603
61740;BME280;47645;45.288;12.038;2023-07-31T02:52:05;1011.9279651808978;;;23.9544921875;91.464927197722
61740;BME280;47645;45.288;12.038;2023-07-31T03:02:05;1011.9095842499861;;;23.684375;92.83600127085512
61740;BME280;47645;45.288;12.038;2023-07-31T03:12:08;1011.878079917684;;;23.2154296875;100
61740;BME280;47645;45.288;12.038;2023-07-31T03:22:08;1011.8432458282124;;;23.241015625;100
61740;BME280;47645;45.288;12.038;2023-07-31T03:32:10;1011.9034478502489;;;22.950390625;100
61740;BME280;47645;45.288;12.038;2023-07-31T03:42:11;1011.8736693873715;;;22.843359375;98.99350016017291
61740;BME280;47645;45.288;12.038;2023-07-31T03:52:13;1011.8843460869081;;;23.0880859375;100
61740;BME280;47645;45.288;12.038;2023-07-31T04:02:14;1011.9385467768766;;;23.2306640625;100
61740;BME280;47645;45.288;12.038;2023-07-31T04:12:15;1011.9558006852566;;;22.853515625;100
61740;BME280;47645;45.288;12.038;2023-07-31T04:22:17;1012.0025690737162;;;22.8841796875;100
61740;BME280;47645;45.288;12.038;2023-07-31T04:32:18;1011.9385645308247;;;23.261328125;94.76526937831761
61740;BME280;47645;45.288;12.038;2023-07-31T04:42:19;1011.8567181331173;;;23.4345703125;94.55302720549128
61740;BME280;47645;45.288;12.038;2023-07-31T04:52:21;1011.9392791295801;;;23.5875;100
61740;BME280;47645;45.288;12.038;2023-07-31T05:02:22;1011.9917551905654;;;23.9341796875;97.4648577969955
61740;BME280;47645;45.288;12.038;2023-07-31T05:12:23;1011.9822528218808;;;23.6384765625;95.99933611581349
61740;BME280;47645;45.288;12.038;2023-07-31T05:22:24;1012.0671391154448;;;23.4396484375;96.58877037422522
61740;BME280;47645;45.288;12.038;2023-07-31T05:32:26;1012.0493067864659;;;23.4244140625;95.88697348912133
61740;BME280;47645;45.288;12.038;2023-07-31T05:42:27;1012.1768432993135;;;23.7302734375;92.46487135501526
61740;BME280;47645;45.288;12.038;2023-07-31T05:52:29;1012.194560066104;;;24.076953125;89.93784974986437
61740;BME280;47645;45.288;12.038;2023-07-31T06:02:33;1012.2972343149645;;;23.975;89.20341868687267
61740;BME280;47645;45.288;12.038;2023-07-31T06:12:32;1012.296323855025;;;24.377734375;88.74913871101379
61740;BME280;47645;45.288;12.038;2023-07-31T06:22:33;1012.3653484345602;;;24.4337890625;87.73899139730163
61740;BME280;47645;45.288;12.038;2023-07-31T06:32:34;1012.3049823689577;;;24.7345703125;85.86167468433341
61740;BME280;47645;45.288;12.038;2023-07-31T06:42:36;1012.3942039444952;;;25.0505859375;86.03752458500834
61740;BME280;47645;45.288;12.038;2023-07-31T06:52:37;1012.4700468709952;;;25.01484375;84.82461017002986
61740;BME280;47645;45.288;12.038;2023-07-31T07:02:38;1012.4167218758795;;;25.5958984375;82.83433805156332
61740;BME280;47645;45.288;12.038;2023-07-31T07:12:39;1012.363135825474;;;26.0904296875;81.63982474181799
61740;BME280;47645;45.288;12.038;2023-07-31T07:22:43;1012.4532288388601;;;26.360546875;81.66994422206425
61740;BME280;47645;45.288;12.038;2023-07-31T07:32:42;1012.5938272612518;;;26.04453125;80.40052846623416
61740;BME280;47645;45.288;12.038;2023-07-31T07:42:44;1012.6044836124233;;;26.23828125;84.03702257432803
61740;BME280;47645;45.288;12.038;2023-07-31T07:52:45;1012.4898014062034;;;26.6765625;84.71003449920146
61740;BME280;47645;45.288;12.038;2023-07-31T08:02:46;1012.4799622835202;;;27.26796875;82.62691443971543
61740;BME280;47645;45.288;12.038;2023-07-31T08:12:48;1012.6051354734061;;;27.8388671875;77.91390653599804
61740;BME280;47645;45.288;12.038;2023-07-31T08:22:52;1012.5512106488528;;;28.1447265625;77.95682872283646
61740;BME280;47645;45.288;12.038;2023-07-31T08:32:51;1012.6250843976992;;;28.578125;78.11784309072561
61740;BME280;47645;45.288;12.038;2023-07-31T08:42:53;1012.6137961438988;;;28.6544921875;76.65476381129768
61740;BME280;47645;45.288;12.038;2023-07-31T08:52:53;1012.5487257864306;;;29.1744140625;75.47349043719647
61740;BME280;47645;45.288;12.038;2023-07-31T09:02:59;1012.4821687092466;;;28.8482421875;78.4182746942756
61740;BME280;47645;45.288;12.038;2023-07-31T09:12:57;1012.5482265023907;;;28.8890625;78.79725014721579
61740;BME280;47645;45.288;12.038;2023-07-31T09:23:06;1012.6465444769725;;;28.9654296875;80.874793988082
61740;BME280;47645;45.288;12.038;2023-07-31T09:33:02;1012.6246265170444;;;28.9451171875;79.39240446822897
61740;BME280;47645;45.288;12.038;2023-07-31T09:43:03;1012.6404001855126;;;29.5720703125;78.3261300938856
61740;BME280;47645;45.288;12.038;2023-07-31T09:53:03;1012.6334078137525;;;29.5466796875;75.43678240449013
61740;BME280;47645;45.288;12.038;2023-07-31T10:03:06;1012.5345625972884;;;30.601953125;69.85463068442341
61740;BME280;47645;45.288;12.038;2023-07-31T10:13:07;1012.5528994010406;;;30.6375;67.21181340971252
61740;BME280;47645;45.288;12.038;2023-07-31T10:23:08;1012.3812498915593;;;31.244140625;64.38564731185267
61740;BME280;47645;45.288;12.038;2023-07-31T10:33:10;1012.3416105288692;;;31.6009765625;64.01772778688621
61740;BME280;47645;45.288;12.038;2023-07-31T10:43:24;1012.3246905165723;;;33.0130859375;61.89133423071973
61740;BME280;47645;45.288;12.038;2023-07-31T10:53:23;1012.3561284251487;;;33.471875;59.18472641359152
61740;BME280;47645;45.288;12.038;2023-07-31T11:03:17;1012.2343466520741;;;34.2212890625;57.19844973251331
61740;BME280;47645;45.288;12.038;2023-07-31T11:13:18;1012.1472176877015;;;34.455859375;53.998183878421685
61740;BME280;47645;45.288;12.038;2023-07-31T11:23:21;1012.1792507961486;;;35.6896484375;51.554955059140866
61740;BME280;47645;45.288;12.038;2023-07-31T11:33:21;1012.1075974234501;;;36.4083984375;51.4026980418892
61740;BME280;47645;45.288;12.038;2023-07-31T11:43:23;1012.0343576450891;;;35.0779296875;52.57165414854148
61740;BME280;47645;45.288;12.038;2023-07-31T11:53:28;1012.0512589198086;;;36.1740234375;47.0808834479152
61740;BME280;47645;45.288;12.038;2023-07-31T12:03:28;1011.9030478419352;;;36.25546875;52.573344934380394
61740;BME280;47645;45.288;12.038;2023-07-31T12:13:31;1011.8600015085602;;;35.144140625;52.443047729367386
61740;BME280;47645;45.288;12.038;2023-07-31T12:23:33;1011.816413483079;;;35.144140625;46.206474098038456
61740;BME280;47645;45.288;12.038;2023-07-31T12:33:34;1011.6453204518998;;;35.75078125;51.17124686000096
61740;BME280;47645;45.288;12.038;2023-07-31T12:43:35;1011.5564301628374;;;37.1017578125;48.123823007793455
61740;BME280;47645;45.288;12.038;2023-07-31T12:53:37;1011.4190710786688;;;37.3923828125;48.638634921789674
61740;BME280;47645;45.288;12.038;2023-07-31T13:03:39;1011.3249394412338;;;38.605859375;46.07017661933415
61740;BME280;47645;45.288;12.038;2023-07-31T13:13:41;1011.2541918700329;;;38.1826171875;39.45517622438918
61740;BME280;47645;45.288;12.038;2023-07-31T13:23:43;1011.0990830655464;;;38.916796875;43.4495180759119
61740;BME280;47645;45.288;12.038;2023-07-31T13:33:45;1011.0612071930213;;;39.0697265625;42.235796700155866
61740;BME280;47645;45.288;12.038;2023-07-31T13:43:47;1010.9527841488082;;;38.7841796875;45.28316870082151
61740;BME280;47645;45.288;12.038;2023-07-31T13:53:49;1010.9143163388584;;;38.7484375;46.23221698905649
61740;BME280;47645;45.288;12.038;2023-07-31T14:03:52;1010.8143108703523;;;38.64140625;36.83735683291522
61740;BME280;47645;45.288;12.038;2023-07-31T14:13:54;1010.6940314603015;;;38.906640625;46.29300353966334
61740;BME280;47645;45.288;12.038;2023-07-31T14:23:56;1010.64197613961;;;38.93203125;43.75430549557283
61740;BME280;47645;45.288;12.038;2023-07-31T14:33:58;1010.650586597898;;;38.7892578125;35.68568855091209
61740;BME280;47645;45.288;12.038;2023-07-31T14:44:00;1010.5039210034113;;;38.3814453125;45.66317218939359
61740;BME280;47645;45.288;12.038;2023-07-31T14:54:03;1010.3028957973975;;;38.5037109375;46.49312819165867
61740;BME280;47645;45.288;12.038;2023-07-31T15:04:05;1010.2083441893254;;;38.4732421875;36.636379819215065
61740;BME280;47645;45.288;12.038;2023-07-31T15:14:07;1010.3336633043116;;;37.142578125;40.98882240045975
61740;BME280;47645;45.288;12.038;2023-07-31T15:24:09;1010.3068736692553;;;36.8978515625;44.328531822653005
61740;BME280;47645;45.288;12.038;2023-07-31T15:34:12;1010.1823336607523;;;37.0763671875;45.31081329512421
61740;BME280;47645;45.288;12.038;2023-07-31T15:44:14;1010.0795256582721;;;36.8111328125;48.53630427807525
61740;BME280;47645;45.288;12.038;2023-07-31T15:54:15;1010.0658766561885;;;37.1833984375;44.8948683894121
61740;BME280;47645;45.288;12.038;2023-07-31T16:04:18;1010.0957486217762;;;36.0822265625;40.42847135341452
61740;BME280;47645;45.288;12.038;2023-07-31T16:14:20;1010.0040764251019;;;36.1791015625;51.93770455164498
61740;BME280;47645;45.288;12.038;2023-07-31T16:24:22;1009.9153640276118;;;35.929296875;52.34146459894605
61740;BME280;47645;45.288;12.038;2023-07-31T16:34:25;1009.8095855704502;;;35.3734375;52.897669807653806
61740;BME280;47645;45.288;12.038;2023-07-31T16:44:26;1009.8216719476973;;;34.8484375;56.36883894749882
61740;BME280;47645;45.288;12.038;2023-07-31T16:54:28;1009.9252651884806;;;34.639453125;56.38626777712001
61740;BME280;47645;45.288;12.038;2023-07-31T17:04:31;1009.9182714024382;;;34.1244140625;58.20827500498014
61740;BME280;47645;45.288;12.038;2023-07-31T17:14:32;1009.9509971420885;;;33.7216796875;60.65221402511386
61740;BME280;47645;45.288;12.038;2023-07-31T17:24:34;1009.8839099014195;;;33.4005859375;61.4329529518314
61740;BME280;47645;45.288;12.038;2023-07-31T17:34:36;1009.8584145161368;;;33.069140625;61.313171895471115
61740;BME280;47645;45.288;12.038;2023-07-31T17:44:38;1009.7678965335639;;;32.7123046875;60.80553870006258
61740;BME280;47645;45.288;12.038;2023-07-31T17:54:41;1009.9147406681087;;;32.263671875;65.0390022055671
61740;BME280;47645;45.288;12.038;2023-07-31T18:04:41;1009.8172078324137;;;31.835546875;66.11538077057227
61740;BME280;47645;45.288;12.038;2023-07-31T18:14:43;1009.8773151608395;;;31.417578125;67.33239509039373
61740;BME280;47645;45.288;12.038;2023-07-31T18:24:45;1009.8053368566563;;;30.846484375;63.899074132008835
61740;BME280;47645;45.288;12.038;2023-07-31T18:34:47;1009.9440096210471;;;30.418359375;66.39588285450391
61740;BME280;47645;45.288;12.038;2023-07-31T18:44:49;1010.0195413955903;;;30.010546875;68.28247432534485
61740;BME280;47645;45.288;12.038;2023-07-31T18:54:50;1010.0176490823218;;;29.633203125;70.64826078528952
61740;BME280;47645;45.288;12.038;2023-07-31T19:04:53;1010.0506295684215;;;29.2560546875;72.08157168222371
61740;BME280;47645;45.288;12.038;2023-07-31T19:14:54;1010.1037288882428;;;28.409765625;74.43212835142181
61740;BME280;47645;45.288;12.038;2023-07-31T19:24:55;1010.2041291272903;;;28.2162109375;76.45915090826396
61740;BME280;47645;45.288;12.038;2023-07-31T19:34:57;1010.3605717506408;;;28.3587890625;76.4359283444375
61740;BME280;47645;45.288;12.038;2023-07-31T19:44:59;1010.2857392041647;;;28.18046875;76.94189102971681
61740;BME280;47645;45.288;12.038;2023-07-31T19:55:00;1010.2615038890247;;;28.00703125;77.64452220731089
61740;BME280;47645;45.288;12.038;2023-07-31T20:05:02;1010.2401315309698;;;27.7419921875;78.61016868624903
61740;BME280;47645;45.288;12.038;2023-07-31T20:15:05;1010.1125185857375;;;27.6095703125;78.4314797129661
61740;BME280;47645;45.288;12.038;2023-07-31T20:20:06;1010.0795434387999;;;27.5228515625;78.8116525350832
61740;BME280;47645;45.288;12.038;2023-07-31T20:30:07;1009.980242297312;;;27.3138671875;79.33527210749561
61740;BME280;47645;45.288;12.038;2023-07-31T20:40:10;1009.9321890705532;;;27.2271484375;79.29379581501796
61740;BME280;47645;45.288;12.038;2023-07-31T20:50:10;1009.8165573510506;;;27.0181640625;79.93232427103878
61740;BME280;47645;45.288;12.038;2023-07-31T21:00:16;1009.8095912282927;;;26.88046875;80.28274141997116
61740;BME280;47645;45.288;12.038;2023-07-31T21:10:14;1009.8420313843885;;;26.758203125;80.61210745970595
61740;BME280;47645;45.288;12.038;2023-07-31T21:20:18;1009.8040344191353;;;26.6052734375;80.63366512170404
61740;BME280;47645;45.288;12.038;2023-07-31T21:30:16;1009.7282972971146;;;26.5390625;80.82294789603922
61740;BME280;47645;45.288;12.038;2023-07-31T21:40:18;1009.7111542396676;;;26.340234375;81.60488845835718
61740;BME280;47645;45.288;12.038;2023-07-31T21:50:19;1009.6940669076761;;;26.26875;81.19085738257327
61740;BME280;47645;45.288;12.038;2023-07-31T22:00:21;1009.6083762285547;;;26.0037109375;82.90007871411332
61740;BME280;47645;45.288;12.038;2023-07-31T22:10:22;1009.3884663059539;;;25.9935546875;82.1598724626143
61740;BME280;47645;45.288;12.038;2023-07-31T22:20:23;1009.3396839677549;;;25.9732421875;81.55456572125989
61740;BME280;47645;45.288;12.038;2023-07-31T22:30:25;1009.2224180321244;;;25.7744140625;83.63555838617631
61740;BME280;47645;45.288;12.038;2023-07-31T22:40:26;1009.0773875652028;;;25.641796875;82.92992597195683
61740;BME280;47645;45.288;12.038;2023-07-31T22:50:28;1008.8793940086298;;;25.6775390625;82.14815732777129
61740;BME280;47645;45.288;12.038;2023-07-31T23:00:30;1008.795330346958;;;25.4787109375;82.84014142781153
61740;BME280;47645;45.288;12.038;2023-07-31T23:10:31;1008.7272677750724;;;25.40234375;82.95960604808886
61740;BME280;47645;45.288;12.038;2023-07-31T23:20:33;1008.6349278464306;;;25.330859375;83.0097791742669
61740;BME280;47645;45.288;12.038;2023-07-31T23:30:34;1008.5963736676545;;;25.1728515625;83.42041336434748
61740;BME280;47645;45.288;12.038;2023-07-31T23:40:36;1008.5990197574204;;;25.096484375;83.92724255931661
61740;BME280;47645;45.288;12.038;2023-07-31T23:50:37;1008.5044467450759;;;24.8669921875;84.67898002624774
